Time;durP1;ratioP1;P1;durP2;ratioP2;P2;SDS_P1;SDS_P2;PMS_P1;PMS_P2;Temp;Humidity;BMP_temperature;BMP_pressure;BME280_temperature;BME280_humidity;BME280_pressure;Samples;Min_cycle;Max_cycle;Signal;HPM_P1;HPM_P2
2022/10/08 00:01:14;;;;;;;12.10;2.75;;;12.20;99.90;;;;;;5034345;28;20073;-65
2022/10/08 00:03:42;;;;;;;17.73;3.25;;;12.10;99.90;;;;;;5015965;28;20041;-63
2022/10/08 00:06:09;;;;;;;15.10;3.38;;;12.10;99.90;;;;;;5034082;28;20063;-65
2022/10/08 00:08:36;;;;;;;12.35;3.00;;;12.10;99.90;;;;;;5033588;28;20042;-65
2022/10/08 00:11:03;;;;;;;15.43;3.40;;;12.10;99.90;;;;;;5016741;28;20433;-66
2022/10/08 00:13:39;;;;;;;16.27;3.20;;;12.10;99.90;;;;;;5034589;28;20069;-66
2022/10/08 00:16:06;;;;;;;16.48;3.53;;;12.00;99.90;;;;;;5033930;28;20050;-67
2022/10/08 00:18:33;;;;;;;16.02;3.13;;;12.00;99.90;;;;;;5034209;28;20124;-65
2022/10/08 00:21:00;;;;;;;15.32;3.00;;;12.00;99.90;;;;;;5034553;28;20445;-62
2022/10/08 00:23:27;;;;;;;14.38;3.47;;;12.00;99.90;;;;;;5033731;28;20408;-67
2022/10/08 00:25:53;;;;;;;12.57;3.53;;;12.00;99.90;;;;;;5038521;28;20498;-65
2022/10/08 00:28:20;;;;;;;11.80;2.88;;;11.90;99.90;;;;;;5043019;28;20045;-67
2022/10/08 00:30:47;;;;;;;16.80;3.63;;;11.90;99.90;;;;;;5045442;28;20120;-63
2022/10/08 00:33:13;;;;;;;19.08;2.95;;;11.90;99.90;;;;;;5053908;28;20032;-68
2022/10/08 00:35:40;;;;;;;14.13;3.30;;;11.90;99.90;;;;;;5035843;28;20048;-65
2022/10/08 00:38:07;;;;;;;16.45;3.05;;;11.80;99.90;;;;;;5053880;28;20090;-61
2022/10/08 00:40:34;;;;;;;14.43;3.40;;;11.80;99.90;;;;;;5053659;28;20065;-64
2022/10/08 00:43:02;;;;;;;16.27;3.45;;;11.80;99.90;;;;;;5053631;28;20047;-68
2022/10/08 00:45:28;;;;;;;21.70;3.75;;;11.80;99.90;;;;;;5053181;28;20072;-63
2022/10/08 00:47:56;;;;;;;11.80;2.97;;;11.80;99.90;;;;;;5054085;28;20041;-68
2022/10/08 00:50:23;;;;;;;18.25;3.20;;;11.70;99.90;;;;;;5053457;28;20134;-68
2022/10/08 00:52:50;;;;;;;18.92;3.80;;;11.70;99.90;;;;;;5053516;28;20063;-64
2022/10/08 00:55:17;;;;;;;17.05;3.63;;;11.70;99.90;;;;;;5053577;28;20069;-65
2022/10/08 00:57:43;;;;;;;16.30;3.70;;;11.70;99.90;;;;;;5053084;28;20203;-67
2022/10/08 01:00:10;;;;;;;16.75;3.45;;;11.70;99.90;;;;;;5042728;28;20041;-68
2022/10/08 01:02:37;;;;;;;17.40;4.05;;;11.70;99.90;;;;;;5032627;28;20542;-66
2022/10/08 01:05:03;;;;;;;15.05;3.40;;;11.60;99.90;;;;;;5033587;28;20053;-67
2022/10/08 01:07:31;;;;;;;14.52;3.67;;;11.70;99.90;;;;;;5032492;28;20041;-66
2022/10/08 01:09:58;;;;;;;18.15;3.70;;;11.60;99.90;;;;;;5033083;28;20049;-67
2022/10/08 01:12:25;;;;;;;17.10;3.67;;;11.60;99.90;;;;;;5033310;28;20124;-67
2022/10/08 01:14:52;;;;;;;18.70;3.40;;;11.60;99.90;;;;;;5033404;28;20365;-66
2022/10/08 01:17:18;;;;;;;15.18;3.15;;;11.60;99.90;;;;;;5032950;28;20120;-63
2022/10/08 01:19:45;;;;;;;14.38;3.60;;;11.50;99.90;;;;;;5032047;28;20042;-65
2022/10/08 01:22:12;;;;;;;16.02;3.47;;;11.50;99.90;;;;;;5032152;28;20048;-67
2022/10/08 01:27:24;;;;;;;20.45;3.15;;;11.50;99.90;;;;;;5032014;28;20065;-62
2022/10/08 01:29:51;;;;;;;20.67;3.33;;;11.50;99.90;;;;;;5032023;28;20045;-66
2022/10/08 01:32:17;;;;;;;15.10;3.08;;;11.40;99.90;;;;;;5032423;28;20141;-67
2022/10/08 01:34:44;;;;;;;19.02;3.40;;;11.40;99.90;;;;;;5032950;28;20097;-66
2022/10/08 01:37:11;;;;;;;15.45;3.28;;;11.40;99.90;;;;;;5033206;28;20046;-66
2022/10/08 01:39:37;;;;;;;20.67;3.42;;;11.40;99.90;;;;;;5033113;28;20038;-67
2022/10/08 01:42:04;;;;;;;16.52;3.78;;;11.40;99.90;;;;;;5033206;28;20052;-66
2022/10/08 01:44:32;;;;;;;18.65;3.17;;;11.30;99.90;;;;;;5033144;28;20045;-65
2022/10/08 01:46:59;;;;;;;11.85;3.15;;;11.30;99.90;;;;;;5032946;28;20042;-65
2022/10/08 01:49:25;;;;;;;19.92;3.20;;;11.30;99.90;;;;;;5033000;28;20048;-68
2022/10/08 01:51:52;;;;;;;16.63;3.63;;;11.30;99.90;;;;;;5033372;28;20041;-64
2022/10/08 01:54:19;;;;;;;22.50;3.65;;;11.20;99.90;;;;;;5033505;28;20424;-66
2022/10/08 01:56:46;;;;;;;16.85;3.30;;;11.20;99.90;;;;;;5033012;28;20038;-64
2022/10/08 01:59:12;;;;;;;20.85;3.30;;;11.20;99.90;;;;;;5036409;28;20046;-67
2022/10/08 02:01:39;;;;;;;17.00;3.67;;;11.20;99.90;;;;;;5036702;28;20046;-63
2022/10/08 02:06:51;;;;;;;15.27;3.38;;;11.10;99.90;;;;;;5036731;28;20500;-64
2022/10/08 02:09:18;;;;;;;18.27;3.75;;;11.10;99.90;;;;;;5037020;28;20041;-66
2022/10/08 02:11:45;;;;;;;16.27;3.03;;;11.10;99.90;;;;;;5036337;28;20113;-66
2022/10/08 02:14:11;;;;;;;18.98;4.15;;;11.10;99.90;;;;;;5036260;28;20042;-65
2022/10/08 02:16:38;;;;;;;19.90;4.53;;;11.00;99.90;;;;;;5036662;28;20120;-65
2022/10/08 02:19:05;;;;;;;12.98;3.42;;;11.00;99.90;;;;;;5036737;28;20528;-67
2022/10/08 02:21:33;;;;;;;15.65;3.17;;;11.00;99.90;;;;;;5036341;28;20045;-63
2022/10/08 02:23:59;;;;;;;15.45;4.28;;;10.90;99.90;;;;;;5036142;28;20084;-65
2022/10/08 02:26:26;;;;;;;18.75;3.40;;;11.00;99.90;;;;;;5018419;28;20362;-65
2022/10/08 02:28:53;;;;;;;14.88;3.00;;;10.90;99.90;;;;;;5036277;28;20120;-66
2022/10/08 02:31:19;;;;;;;13.13;3.67;;;10.90;99.90;;;;;;5036351;28;20447;-66
2022/10/08 02:33:46;;;;;;;15.18;3.45;;;10.90;99.90;;;;;;5018551;28;20061;-64
2022/10/08 02:36:13;;;;;;;15.68;3.05;;;10.90;99.90;;;;;;5035995;28;20140;-66
2022/10/08 02:38:40;;;;;;;18.75;3.13;;;10.90;99.90;;;;;;5036244;28;20065;-66
2022/10/08 02:41:06;;;;;;;16.55;3.45;;;10.80;99.90;;;;;;5018642;28;20140;-65
2022/10/08 02:43:33;;;;;;;17.33;3.70;;;10.80;99.90;;;;;;5036312;28;20044;-69
2022/10/08 02:46:00;;;;;;;12.73;2.83;;;10.80;99.90;;;;;;5035708;28;20551;-65
2022/10/08 02:48:27;;;;;;;13.30;3.08;;;10.80;99.90;;;;;;5036086;28;20088;-65
2022/10/08 02:50:53;;;;;;;13.75;2.60;;;10.70;99.90;;;;;;5036379;28;20066;-67
2022/10/08 02:53:21;;;;;;;16.27;3.22;;;10.70;99.90;;;;;;5036309;28;20116;-65
2022/10/08 02:55:48;;;;;;;15.40;2.80;;;10.70;99.90;;;;;;5035584;28;20084;-68
2022/10/08 02:58:15;;;;;;;17.40;2.53;;;10.70;99.90;;;;;;5035689;28;20124;-65
2022/10/08 03:00:41;;;;;;;14.40;3.40;;;10.70;99.90;;;;;;5035987;28;20121;-65
2022/10/08 03:03:08;;;;;;;11.18;2.53;;;10.70;99.90;;;;;;5035594;28;20485;-65
2022/10/08 03:05:35;;;;;;;14.63;2.75;;;10.60;99.90;;;;;;5035516;28;20133;-63
2022/10/08 03:08:04;;;;;;;15.23;2.70;;;10.60;99.90;;;;;;5035046;28;20080;-65
2022/10/08 03:10:31;;;;;;;18.35;3.38;;;10.60;99.90;;;;;;5035697;28;20069;-66
2022/10/08 03:12:58;;;;;;;13.13;2.58;;;10.60;99.90;;;;;;5035352;28;20448;-65
2022/10/08 03:15:25;;;;;;;9.50;2.47;;;10.60;99.90;;;;;;5035608;28;20033;-65
2022/10/08 03:17:52;;;;;;;13.63;2.90;;;10.60;99.90;;;;;;5035812;28;20061;-64
2022/10/08 03:20:18;;;;;;;15.20;3.05;;;10.50;99.90;;;;;;5035708;28;20034;-69
2022/10/08 03:22:45;;;;;;;15.93;3.00;;;10.50;99.90;;;;;;5035152;28;20073;-64
2022/10/08 03:25:12;;;;;;;12.40;2.30;;;10.50;99.90;;;;;;5035283;28;20045;-65
2022/10/08 03:27:39;;;;;;;13.68;2.92;;;10.50;99.90;;;;;;5035514;28;20080;-67
2022/10/08 03:30:05;;;;;;;13.07;2.45;;;10.50;99.90;;;;;;5035536;28;20116;-62
2022/10/08 03:32:32;;;;;;;16.48;3.28;;;10.50;99.90;;;;;;5035277;28;20041;-62
2022/10/08 03:34:59;;;;;;;13.60;2.78;;;10.40;99.90;;;;;;5034745;28;20128;-65
2022/10/08 03:37:26;;;;;;;13.90;3.42;;;10.40;99.90;;;;;;5034777;28;20045;-67
2022/10/08 03:39:52;;;;;;;15.23;2.95;;;10.40;99.90;;;;;;5034861;28;20124;-65
2022/10/08 03:42:19;;;;;;;13.38;2.67;;;10.40;99.90;;;;;;5035108;28;20095;-63
2022/10/08 03:44:46;;;;;;;11.90;3.25;;;10.40;99.90;;;;;;5034632;28;20045;-64
2022/10/08 03:47:13;;;;;;;13.60;2.95;;;10.40;99.90;;;;;;5035232;28;20099;-66
2022/10/08 03:49:40;;;;;;;13.63;3.15;;;10.30;99.90;;;;;;5035269;28;20094;-63
2022/10/08 03:52:06;;;;;;;17.02;2.90;;;10.30;99.90;;;;;;5034972;28;20072;-65
2022/10/08 03:54:33;;;;;;;15.82;2.88;;;10.30;99.90;;;;;;5034949;28;20057;-64
2022/10/08 03:57:00;;;;;;;12.77;2.88;;;10.20;99.90;;;;;;5016756;28;20069;-67
2022/10/08 03:59:27;;;;;;;16.83;3.33;;;10.20;99.90;;;;;;5034928;28;20384;-64
2022/10/08 04:01:53;;;;;;;16.65;3.17;;;10.20;99.90;;;;;;5034978;28;20080;-61
2022/10/08 04:04:20;;;;;;;15.52;2.80;;;10.20;99.90;;;;;;5034197;28;20073;-66
2022/10/08 04:06:51;;;;;;;10.35;2.55;;;10.10;99.90;;;;;;5034277;28;20091;-66
2022/10/08 04:09:17;;;;;;;15.00;3.38;;;10.10;99.90;;;;;;5034744;28;20053;-65
2022/10/08 04:11:44;;;;;;;15.02;2.70;;;10.10;99.90;;;;;;5034714;28;20075;-64
2022/10/08 04:14:11;;;;;;;9.75;2.95;;;10.10;99.90;;;;;;5016834;28;20045;-65
2022/10/08 04:16:38;;;;;;;20.05;3.20;;;10.10;99.90;;;;;;5034934;28;20091;-65
2022/10/08 04:19:04;;;;;;;10.15;2.58;;;10.00;99.90;;;;;;5034332;28;20129;-61
2022/10/08 04:21:31;;;;;;;13.68;3.13;;;10.00;99.90;;;;;;5033323;28;20103;-61
2022/10/08 04:23:58;;;;;;;18.27;3.25;;;10.10;99.90;;;;;;5034179;28;20059;-64
2022/10/08 04:26:25;;;;;;;15.38;2.80;;;10.00;99.90;;;;;;5016964;28;20120;-61
2022/10/08 04:28:51;;;;;;;12.27;2.40;;;10.00;99.90;;;;;;5034537;28;20191;-66
2022/10/08 04:31:20;;;;;;;15.40;2.90;;;10.00;99.90;;;;;;5034411;28;20386;-62
2022/10/08 04:33:47;;;;;;;18.10;3.45;;;10.00;99.90;;;;;;5033940;28;20041;-63
2022/10/08 04:36:14;;;;;;;12.07;3.33;;;10.00;99.90;;;;;;5033689;28;20037;-63
2022/10/08 04:38:40;;;;;;;15.43;2.83;;;10.00;99.90;;;;;;5033941;28;20065;-63
2022/10/08 04:41:07;;;;;;;15.13;3.15;;;9.90;99.90;;;;;;5016300;28;20045;-68
2022/10/08 04:43:34;;;;;;;17.25;3.30;;;9.90;99.90;;;;;;5034411;28;20052;-66
2022/10/08 04:46:00;;;;;;;18.38;2.67;;;9.90;99.90;;;;;;5033568;28;20067;-63
2022/10/08 04:48:27;;;;;;;12.40;2.67;;;9.90;99.90;;;;;;5033625;28;20509;-65
2022/10/08 04:50:54;;;;;;;15.38;3.03;;;9.90;99.90;;;;;;5016505;28;20128;-66
2022/10/08 04:53:21;;;;;;;14.75;3.50;;;9.90;99.90;;;;;;5033813;28;20439;-62
2022/10/08 04:55:47;;;;;;;13.18;3.08;;;9.80;99.90;;;;;;5034107;28;20107;-66
2022/10/08 04:58:14;;;;;;;15.85;3.22;;;9.80;99.90;;;;;;5033962;28;20041;-63
2022/10/08 05:00:41;;;;;;;14.75;2.85;;;9.80;99.90;;;;;;5033916;28;20073;-65
2022/10/08 05:03:07;;;;;;;15.52;2.63;;;9.80;99.90;;;;;;5033788;28;20084;-61
2022/10/08 05:05:34;;;;;;;9.95;2.53;;;9.80;99.90;;;;;;5033663;28;20048;-66
2022/10/08 05:08:01;;;;;;;12.80;2.67;;;9.80;99.90;;;;;;5034041;28;20049;-61
2022/10/08 05:10:28;;;;;;;14.43;2.35;;;9.70;99.90;;;;;;5033523;28;20124;-63
2022/10/08 05:12:54;;;;;;;13.43;2.88;;;9.70;99.90;;;;;;5033877;28;20080;-65
2022/10/08 05:15:21;;;;;;;17.63;3.22;;;9.70;99.90;;;;;;5015484;28;20452;-63
2022/10/08 05:17:48;;;;;;;11.25;2.65;;;9.70;99.90;;;;;;5033395;28;20084;-65
2022/10/08 05:20:14;;;;;;;18.10;2.88;;;9.70;99.90;;;;;;5033427;28;20543;-66
2022/10/08 05:22:41;;;;;;;13.75;2.60;;;9.70;99.90;;;;;;5033188;28;20072;-63
2022/10/08 05:25:08;;;;;;;11.88;3.10;;;9.70;99.90;;;;;;5033227;28;20117;-66
2022/10/08 05:27:35;;;;;;;15.32;2.97;;;9.60;99.90;;;;;;5033889;28;20069;-65
2022/10/08 05:30:02;;;;;;;13.25;2.85;;;9.60;99.90;;;;;;5033365;28;20121;-66
2022/10/08 05:32:28;;;;;;;12.30;2.50;;;9.60;99.90;;;;;;5035937;28;20061;-66
2022/10/08 05:34:55;;;;;;;11.60;2.83;;;9.60;99.90;;;;;;5037478;28;20038;-64
2022/10/08 05:37:22;;;;;;;11.13;2.67;;;9.60;99.90;;;;;;5037282;28;20124;-65
2022/10/08 05:39:49;;;;;;;11.55;2.42;;;9.60;99.90;;;;;;5036953;28;20073;-63
2022/10/08 05:42:15;;;;;;;13.20;2.80;;;9.60;99.90;;;;;;5037081;28;20516;-62
2022/10/08 05:44:42;;;;;;;14.82;2.92;;;9.60;99.90;;;;;;5037340;28;20080;-64
2022/10/08 05:47:11;;;;;;;11.52;2.78;;;9.50;99.90;;;;;;5036965;28;20042;-66
2022/10/08 05:49:37;;;;;;;8.95;2.28;;;9.50;99.90;;;;;;5036944;28;20121;-66
2022/10/08 05:52:04;;;;;;;13.57;3.13;;;9.50;99.90;;;;;;5019471;28;20049;-63
2022/10/08 05:54:31;;;;;;;11.60;2.80;;;9.50;99.90;;;;;;5037369;28;20080;-63
2022/10/08 05:56:57;;;;;;;10.50;2.35;;;9.40;99.90;;;;;;5036857;28;20384;-62
2022/10/08 05:59:24;;;;;;;11.55;3.92;;;9.40;99.90;;;;;;5036940;28;20037;-62
2022/10/08 06:01:51;;;;;;;14.45;2.95;;;9.40;99.90;;;;;;5037092;28;20072;-64
2022/10/08 06:04:18;;;;;;;15.55;2.95;;;9.40;99.90;;;;;;5036971;28;20127;-64
2022/10/08 06:06:44;;;;;;;9.45;2.50;;;9.40;99.90;;;;;;5019832;28;20124;-63
2022/10/08 06:09:11;;;;;;;12.23;2.40;;;9.40;99.90;;;;;;5037103;28;20555;-63
2022/10/08 06:11:38;;;;;;;8.93;2.50;;;9.30;99.90;;;;;;5036390;28;20049;-63
2022/10/08 06:14:05;;;;;;;11.15;2.72;;;9.30;99.90;;;;;;5036630;28;20037;-65
2022/10/08 06:16:32;;;;;;;14.05;2.60;;;9.30;99.90;;;;;;5036692;28;20034;-61
2022/10/08 06:19:00;;;;;;;11.23;2.75;;;9.30;99.90;;;;;;5036396;28;20037;-61
2022/10/08 06:21:28;;;;;;;11.50;2.40;;;9.30;99.90;;;;;;5036931;28;20046;-61
2022/10/08 06:23:54;;;;;;;10.82;2.47;;;9.30;99.90;;;;;;5036470;28;20095;-65
2022/10/08 06:26:21;;;;;;;12.95;2.28;;;9.20;99.90;;;;;;5036207;28;20496;-63
2022/10/08 06:28:48;;;;;;;12.30;2.72;;;9.30;99.90;;;;;;5036338;28;20125;-62
2022/10/08 06:31:15;;;;;;;11.32;2.63;;;9.30;99.90;;;;;;5018914;28;20088;-68
2022/10/08 06:33:41;;;;;;;9.52;2.63;;;9.20;99.90;;;;;;5036570;28;20484;-63
2022/10/08 06:36:08;;;;;;;10.25;2.30;;;9.20;99.90;;;;;;5036184;28;20076;-67
2022/10/08 06:38:35;;;;;;;10.90;2.30;;;9.30;99.90;;;;;;5036358;28;20469;-69
2022/10/08 06:41:01;;;;;;;11.60;2.80;;;9.20;99.90;;;;;;5035948;28;20117;-65
2022/10/08 06:43:28;;;;;;;11.98;2.35;;;9.30;99.90;;;;;;5035106;28;20492;-66
2022/10/08 06:45:58;;;;;;;12.45;2.90;;;9.20;99.90;;;;;;5036344;28;20133;-66
2022/10/08 06:48:25;;;;;;;10.13;2.80;;;9.30;99.90;;;;;;5035915;28;20041;-67
2022/10/08 06:50:52;;;;;;;13.32;2.70;;;9.20;99.90;;;;;;5036371;28;20477;-64
2022/10/08 06:53:18;;;;;;;13.68;2.80;;;9.20;99.90;;;;;;5035917;28;20064;-66
2022/10/08 06:55:45;;;;;;;11.73;3.30;;;9.30;99.90;;;;;;5035691;28;20096;-63
2022/10/08 06:58:12;;;;;;;11.90;2.20;;;9.30;99.90;;;;;;5018764;28;20084;-60
2022/10/08 07:00:38;;;;;;;13.20;2.67;;;9.30;99.90;;;;;;5035612;28;20045;-62
2022/10/08 07:03:05;;;;;;;13.20;2.80;;;9.30;99.90;;;;;;5036224;28;20051;-64
2022/10/08 07:05:32;;;;;;;15.38;2.47;;;9.30;99.90;;;;;;5035517;28;20042;-64
2022/10/08 07:07:59;;;;;;;9.57;2.00;;;9.30;99.90;;;;;;5036018;28;20517;-67
2022/10/08 07:10:25;;;;;;;10.20;2.50;;;9.30;99.90;;;;;;5035907;28;20041;-64
2022/10/08 07:12:58;;;;;;;10.63;2.60;;;9.30;99.90;;;;;;5036017;28;20048;-67
2022/10/08 07:15:25;;;;;;;10.77;2.55;;;9.40;99.90;;;;;;5035259;28;20128;-65
2022/10/08 07:17:51;;;;;;;9.23;2.13;;;9.40;99.90;;;;;;5018082;28;20560;-63
2022/10/08 07:20:18;;;;;;;12.13;2.80;;;9.40;99.90;;;;;;5035196;28;20037;-66
2022/10/08 07:22:45;;;;;;;9.60;2.53;;;9.50;99.90;;;;;;5035292;28;20117;-62
2022/10/08 07:25:12;;;;;;;8.95;1.95;;;9.50;99.90;;;;;;5034929;28;20053;-65
2022/10/08 07:27:39;;;;;;;8.55;2.33;;;9.50;99.90;;;;;;5017743;28;20054;-63
2022/10/08 07:30:10;;;;;;;13.95;2.58;;;9.50;99.90;;;;;;5035626;28;20045;-65
2022/10/08 07:32:37;;;;;;;9.52;1.90;;;9.50;99.90;;;;;;5034967;28;20077;-62
2022/10/08 07:35:03;;;;;;;10.48;2.20;;;9.60;99.90;;;;;;5035030;28;20425;-67
2022/10/08 07:37:30;;;;;;;9.20;2.03;;;9.60;99.90;;;;;;5034860;28;20450;-64
2022/10/08 07:39:57;;;;;;;10.40;2.08;;;9.70;99.90;;;;;;5035074;28;20091;-63
2022/10/08 07:42:23;;;;;;;7.05;1.88;;;9.70;99.90;;;;;;5035593;28;20103;-65
2022/10/08 07:44:50;;;;;;;10.38;2.10;;;9.70;99.90;;;;;;5017155;28;20077;-64
2022/10/08 07:47:17;;;;;;;13.25;2.00;;;9.70;99.90;;;;;;5034602;28;20120;-64
2022/10/08 07:49:43;;;;;;;11.55;2.13;;;9.80;99.90;;;;;;5035059;28;20072;-62
2022/10/08 07:52:10;;;;;;;12.60;2.20;;;9.80;99.90;;;;;;5034894;28;20077;-61
2022/10/08 07:54:37;;;;;;;14.18;3.45;;;9.80;99.90;;;;;;5033849;28;20476;-64
2022/10/08 07:57:04;;;;;;;9.95;2.42;;;9.90;99.90;;;;;;5034609;28;20140;-65
2022/10/08 07:59:31;;;;;;;11.70;2.33;;;10.00;99.90;;;;;;5017624;28;20457;-66
2022/10/08 08:01:57;;;;;;;12.10;2.35;;;10.00;99.90;;;;;;5034637;28;20091;-64
2022/10/08 08:04:24;;;;;;;11.48;2.35;;;10.00;99.90;;;;;;5034459;28;20047;-64
2022/10/08 08:06:51;;;;;;;9.95;2.15;;;10.10;99.90;;;;;;5034740;28;20212;-64
2022/10/08 08:09:18;;;;;;;10.93;2.17;;;10.10;99.90;;;;;;5016852;28;20041;-68
2022/10/08 08:11:45;;;;;;;12.15;2.20;;;10.10;99.90;;;;;;5016583;28;20045;-61
2022/10/08 08:14:12;;;;;;;10.45;2.78;;;10.20;99.90;;;;;;5034103;28;20033;-67
2022/10/08 08:16:39;;;;;;;11.35;2.50;;;10.20;99.90;;;;;;5016365;28;20048;-64
2022/10/08 08:19:06;;;;;;;13.38;2.80;;;10.20;99.90;;;;;;5034171;28;20037;-63
2022/10/08 08:21:32;;;;;;;13.52;2.15;;;10.30;99.90;;;;;;5034471;28;20469;-63
2022/10/08 08:24:00;;;;;;;16.70;2.70;;;10.30;99.90;;;;;;5033741;28;20116;-64
2022/10/08 08:26:27;;;;;;;12.98;2.42;;;10.40;99.90;;;;;;5034107;28;20489;-61
2022/10/08 08:28:54;;;;;;;9.02;2.30;;;10.40;99.90;;;;;;5016553;28;20049;-63
2022/10/08 08:31:21;;;;;;;9.77;2.00;;;10.40;99.90;;;;;;5034076;28;20072;-63
2022/10/08 08:33:49;;;;;;;10.50;2.08;;;10.50;99.90;;;;;;5034296;28;20065;-65
2022/10/08 08:36:17;;;;;;;10.93;1.73;;;10.50;99.90;;;;;;5033990;28;20061;-68
2022/10/08 08:38:43;;;;;;;12.73;2.47;;;10.60;99.90;;;;;;5033859;28;20046;-65
2022/10/08 08:41:10;;;;;;;17.55;1.98;;;10.60;99.90;;;;;;5034075;28;20564;-66
2022/10/08 08:43:41;;;;;;;10.35;2.25;;;10.60;99.90;;;;;;5034296;28;20076;-64
2022/10/08 08:46:07;;;;;;;12.85;2.47;;;10.70;99.90;;;;;;5033705;28;20061;-63
2022/10/08 08:48:35;;;;;;;11.32;2.30;;;10.70;99.90;;;;;;5034105;28;20049;-65
2022/10/08 08:51:03;;;;;;;10.70;2.58;;;10.80;99.90;;;;;;5035561;28;20083;-65
2022/10/08 08:53:30;;;;;;;11.38;2.95;;;10.80;99.90;;;;;;5035375;28;20044;-65
2022/10/08 08:55:56;;;;;;;14.23;2.78;;;10.90;99.90;;;;;;5033395;28;20472;-64
2022/10/08 08:58:24;;;;;;;8.98;2.83;;;10.90;99.90;;;;;;5031848;28;20459;-61
2022/10/08 09:00:51;;;;;;;12.10;2.47;;;11.00;99.90;;;;;;5033027;28;20429;-63
2022/10/08 09:03:19;;;;;;;13.27;2.15;;;11.00;99.90;;;;;;5033018;28;20095;-62
2022/10/08 09:05:45;;;;;;;16.17;2.65;;;11.10;99.90;;;;;;5033578;28;20136;-64
2022/10/08 09:08:12;;;;;;;15.00;2.55;;;11.10;99.90;;;;;;5033054;28;20043;-64
2022/10/08 09:10:39;;;;;;;14.45;2.08;;;11.20;99.90;;;;;;5033023;28;20077;-67
2022/10/08 09:13:05;;;;;;;10.13;2.45;;;11.20;99.90;;;;;;5033286;28;20063;-64
2022/10/08 09:15:32;;;;;;;11.40;2.70;;;11.30;99.90;;;;;;5032198;28;20116;-66
2022/10/08 09:17:59;;;;;;;12.88;2.38;;;11.30;99.90;;;;;;5038251;28;20045;-64
2022/10/08 09:20:26;;;;;;;12.63;2.17;;;11.30;99.90;;;;;;5052270;28;20091;-62
2022/10/08 09:22:53;;;;;;;14.25;3.40;;;11.30;99.90;;;;;;5026127;28;20044;-62
2022/10/08 09:25:20;;;;;;;13.85;2.53;;;11.40;99.90;;;;;;5026353;28;20160;-66
2022/10/08 09:27:47;;;;;;;9.15;2.47;;;11.40;99.90;;;;;;5026397;28;20124;-64
2022/10/08 09:30:13;;;;;;;13.32;2.67;;;11.40;99.90;;;;;;5039101;28;20559;-66
2022/10/08 09:32:40;;;;;;;12.52;2.70;;;11.50;99.90;;;;;;5032547;28;20046;-67
2022/10/08 09:35:09;;;;;;;11.55;2.75;;;11.50;99.90;;;;;;5032543;28;20124;-63
2022/10/08 09:37:35;;;;;;;14.05;2.15;;;11.60;99.90;;;;;;5032259;28;20041;-63
2022/10/08 09:40:02;;;;;;;9.80;2.53;;;11.70;99.90;;;;;;5032702;28;20037;-65
2022/10/08 09:42:29;;;;;;;13.77;2.28;;;11.70;99.90;;;;;;5032618;28;20500;-60
2022/10/08 09:44:57;;;;;;;11.65;2.53;;;11.80;99.90;;;;;;5032408;28;20072;-61
2022/10/08 09:47:24;;;;;;;10.32;2.00;;;11.80;99.90;;;;;;5015104;28;20153;-63
2022/10/08 09:49:51;;;;;;;10.35;2.33;;;11.80;99.90;;;;;;5032578;28;20056;-64
2022/10/08 09:52:18;;;;;;;16.10;3.13;;;11.90;99.90;;;;;;5037322;28;20456;-62
2022/10/08 09:54:47;;;;;;;7.80;2.13;;;11.90;99.90;;;;;;5033037;28;20042;-63
2022/10/08 09:57:14;;;;;;;11.68;2.30;;;12.00;99.90;;;;;;5037487;28;20037;-62
2022/10/08 09:59:40;;;;;;;13.48;2.78;;;12.00;99.90;;;;;;5051567;28;20037;-63
2022/10/08 10:02:09;;;;;;;12.05;2.40;;;12.00;99.90;;;;;;5032928;28;20380;-64
2022/10/08 10:04:35;;;;;;;9.98;2.17;;;12.10;99.90;;;;;;5043982;28;20049;-63
2022/10/08 10:07:02;;;;;;;9.15;2.22;;;12.10;99.90;;;;;;5037730;28;20041;-60
2022/10/08 10:09:29;;;;;;;13.57;2.22;;;12.10;99.90;;;;;;5040093;28;20049;-63
2022/10/08 10:11:55;;;;;;;10.13;2.28;;;12.20;99.90;;;;;;5033370;28;20523;-63
2022/10/08 10:14:22;;;;;;;15.07;2.25;;;12.20;99.90;;;;;;5032832;28;20407;-65
2022/10/08 10:16:49;;;;;;;11.00;2.60;;;12.30;99.90;;;;;;5032058;28;20042;-63
2022/10/08 10:19:16;;;;;;;9.88;2.63;;;12.30;99.90;;;;;;5034036;28;20038;-62
2022/10/08 10:21:42;;;;;;;13.75;2.63;;;12.30;99.90;;;;;;5036174;28;20048;-60
2022/10/08 10:24:09;;;;;;;9.05;2.05;;;12.40;99.90;;;;;;5035849;28;20050;-64
2022/10/08 10:26:36;;;;;;;13.90;2.65;;;12.40;99.90;;;;;;5035807;28;20045;-64
2022/10/08 10:29:02;;;;;;;12.20;2.60;;;12.50;99.90;;;;;;5032990;28;20129;-61
2022/10/08 10:31:29;;;;;;;15.32;2.83;;;12.50;99.90;;;;;;5045895;28;20041;-62
2022/10/08 10:33:56;;;;;;;18.80;2.80;;;12.50;99.90;;;;;;5042041;28;20088;-60
2022/10/08 10:36:23;;;;;;;10.27;2.17;;;12.50;99.90;;;;;;5035462;28;20072;-63
2022/10/08 10:38:49;;;;;;;12.35;2.30;;;12.60;99.90;;;;;;5048062;28;20041;-64
2022/10/08 10:41:16;;;;;;;11.02;2.58;;;12.60;99.90;;;;;;5027452;28;20041;-64
2022/10/08 10:43:43;;;;;;;12.68;2.60;;;12.60;99.90;;;;;;5044820;28;20049;-64
2022/10/08 10:46:10;;;;;;;10.82;2.35;;;12.60;99.90;;;;;;5045816;28;20051;-64
2022/10/08 10:48:37;;;;;;;12.35;2.10;;;12.70;99.90;;;;;;5048403;28;20067;-67
2022/10/08 10:51:03;;;;;;;12.02;2.28;;;12.70;99.90;;;;;;5037952;28;20163;-63
2022/10/08 10:53:30;;;;;;;11.45;2.40;;;12.80;99.90;;;;;;5050820;28;20075;-65
2022/10/08 10:55:57;;;;;;;11.38;2.75;;;12.80;99.90;;;;;;5054036;28;20455;-67
2022/10/08 10:58:23;;;;;;;10.20;2.30;;;12.80;99.90;;;;;;5032193;28;20045;-65
2022/10/08 11:00:50;;;;;;;10.30;2.28;;;12.90;99.90;;;;;;5042296;28;20112;-63
2022/10/08 11:03:17;;;;;;;11.63;2.88;;;13.00;99.90;;;;;;5052089;28;20124;-65
2022/10/08 11:05:43;;;;;;;11.13;2.58;;;13.00;99.90;;;;;;5048159;28;20437;-64
2022/10/08 11:08:10;;;;;;;13.30;3.25;;;13.10;99.90;;;;;;5038214;28;20065;-65
2022/10/08 11:10:37;;;;;;;12.85;2.15;;;13.20;99.90;;;;;;5035033;28;20128;-67
2022/10/08 11:13:04;;;;;;;11.05;2.53;;;13.30;99.90;;;;;;5016922;28;20079;-64
2022/10/08 11:15:30;;;;;;;11.98;2.40;;;13.30;99.60;;;;;;5034474;28;20116;-65
2022/10/08 11:17:57;;;;;;;10.88;2.80;;;13.30;99.90;;;;;;5016830;28;20040;-63
2022/10/08 11:20:24;;;;;;;13.65;2.97;;;13.30;99.90;;;;;;5035077;28;20042;-65
2022/10/08 11:22:50;;;;;;;10.32;2.22;;;13.30;99.90;;;;;;5033954;28;20037;-66
2022/10/08 11:25:17;;;;;;;13.60;2.83;;;13.40;99.90;;;;;;5034424;28;20125;-67
2022/10/08 11:27:44;;;;;;;10.73;2.42;;;13.40;99.50;;;;;;5034898;28;20046;-65
2022/10/08 11:30:12;;;;;;;8.10;2.00;;;13.50;98.60;;;;;;5033790;28;20582;-63
2022/10/08 11:32:39;;;;;;;11.20;2.10;;;13.50;98.90;;;;;;5034853;28;20463;-62
2022/10/08 11:35:06;;;;;;;10.70;1.90;;;13.40;98.10;;;;;;5033702;28;20060;-62
2022/10/08 11:37:33;;;;;;;8.90;1.92;;;13.50;98.60;;;;;;5034734;28;20049;-66
2022/10/08 11:39:59;;;;;;;11.85;2.10;;;13.50;99.10;;;;;;5033987;28;20117;-68
2022/10/08 11:42:26;;;;;;;11.55;2.28;;;13.50;99.20;;;;;;5016780;28;20571;-64
2022/10/08 11:44:53;;;;;;;14.43;2.17;;;13.70;99.20;;;;;;5027215;28;20064;-64
2022/10/08 11:47:19;;;;;;;10.63;1.63;;;13.70;98.50;;;;;;5026747;28;20369;-65
2022/10/08 11:49:47;;;;;;;8.07;2.17;;;13.70;98.50;;;;;;5048577;28;20052;-70
2022/10/08 11:52:13;;;;;;;9.70;2.13;;;13.70;97.90;;;;;;5034328;28;20073;-64
2022/10/08 11:54:41;;;;;;;10.45;2.05;;;13.70;98.30;;;;;;5033237;28;20117;-63
2022/10/08 11:57:08;;;;;;;13.18;2.50;;;13.70;97.90;;;;;;5034177;28;20068;-64
2022/10/08 11:59:34;;;;;;;7.25;1.98;;;13.70;97.80;;;;;;5034089;28;20042;-66
2022/10/08 12:02:01;;;;;;;8.95;1.83;;;13.80;97.20;;;;;;5032733;28;20073;-67
2022/10/08 12:04:28;;;;;;;9.93;2.30;;;13.80;97.40;;;;;;5033163;28;20114;-66
2022/10/08 12:06:54;;;;;;;6.85;2.05;;;13.80;97.10;;;;;;5033512;28;20076;-68
2022/10/08 12:09:21;;;;;;;9.38;2.00;;;13.90;96.20;;;;;;5033881;28;20535;-65
2022/10/08 12:11:48;;;;;;;9.38;1.88;;;14.00;96.90;;;;;;5033059;28;20053;-66
2022/10/08 12:14:15;;;;;;;11.95;2.25;;;14.00;97.10;;;;;;5033557;28;20423;-64
2022/10/08 12:16:42;;;;;;;7.57;1.98;;;14.00;97.10;;;;;;5032855;28;20096;-68
2022/10/08 12:19:09;;;;;;;7.38;2.00;;;14.10;97.40;;;;;;5033778;28;20381;-63
2022/10/08 12:21:35;;;;;;;6.25;1.70;;;14.10;96.70;;;;;;5033631;28;20069;-62
2022/10/08 12:24:02;;;;;;;11.13;1.83;;;14.10;94.90;;;;;;5032644;28;20119;-67
2022/10/08 12:26:29;;;;;;;10.77;1.92;;;14.20;94.60;;;;;;5033335;28;20037;-69
2022/10/08 12:28:56;;;;;;;9.60;1.58;;;14.20;94.30;;;;;;5032441;28;20065;-67
2022/10/08 12:31:22;;;;;;;7.75;1.95;;;14.20;94.10;;;;;;5015873;28;20073;-64
2022/10/08 12:33:49;;;;;;;8.60;1.70;;;14.20;95.20;;;;;;5016006;28;20045;-69
2022/10/08 12:36:16;;;;;;;10.45;1.70;;;14.20;95.70;;;;;;5015766;28;20038;-68
2022/10/08 12:38:43;;;;;;;7.78;1.80;;;14.20;94.80;;;;;;5033547;28;20041;-67
2022/10/08 12:41:10;;;;;;;8.63;1.55;;;14.20;95.00;;;;;;5032109;28;20169;-65
2022/10/08 12:43:37;;;;;;;7.65;1.80;;;14.20;95.20;;;;;;5032276;28;20085;-65